createdAt,value
2023-04-01T00:00:37.311Z,15.32
2023-04-01T00:06:21.253Z,15.27
2023-04-01T00:12:05.282Z,15.24
2023-04-01T00:17:49.559Z,15.24
2023-04-01T00:23:33.880Z,15.22
2023-04-01T00:29:17.758Z,15.25
2023-04-01T00:35:01.844Z,15.2
2023-04-01T00:40:47.090Z,15.22
2023-04-01T00:46:31.246Z,15.17
2023-04-01T00:52:18.347Z,15.19
2023-04-01T00:58:02.839Z,15.14
2023-04-01T01:03:46.866Z,15.14
2023-04-01T01:09:36.679Z,15.09
2023-04-01T01:15:24.687Z,15.1
2023-04-01T01:21:20.251Z,15.17
2023-04-01T01:27:05.308Z,15.24
2023-04-01T01:33:09.697Z,15.17
2023-04-01T01:38:55.515Z,15.14
2023-04-01T01:44:41.570Z,15.1
2023-04-01T01:50:26.737Z,15.11
2023-04-01T01:56:12.356Z,15.08
2023-04-01T02:01:57.485Z,15.08
2023-04-01T02:07:44.432Z,15.06
2023-04-01T02:13:31.608Z,15.01
2023-04-01T02:19:17.020Z,15.01
2023-04-01T02:25:03.701Z,14.99
2023-04-01T02:30:48.823Z,14.99
2023-04-01T02:36:33.070Z,14.95
2023-04-01T02:42:16.971Z,14.91
2023-04-01T02:48:01.900Z,14.91
2023-04-01T02:53:46.049Z,14.92
2023-04-01T02:59:30.121Z,14.91
2023-04-01T03:05:14.050Z,14.88
2023-04-01T03:10:59.534Z,14.84
2023-04-01T03:16:44.295Z,14.83
2023-04-01T03:22:28.451Z,14.85
2023-04-01T03:28:12.438Z,14.91
2023-04-01T03:33:56.558Z,14.89
2023-04-01T03:39:41.098Z,14.81
2023-04-01T03:45:28.354Z,14.84
2023-04-01T03:51:12.828Z,14.87
2023-04-01T03:56:56.861Z,14.8
2023-04-01T04:02:41.062Z,14.79
2023-04-01T04:08:25.528Z,14.78
2023-04-01T04:14:09.507Z,14.74
2023-04-01T04:19:53.612Z,14.79
2023-04-01T04:25:37.575Z,14.8
2023-04-01T04:31:23.821Z,14.76
2023-04-01T04:37:08.035Z,14.73
2023-04-01T04:42:52.115Z,14.68
2023-04-01T04:48:36.406Z,14.67
2023-04-01T04:54:21.598Z,14.63
2023-04-01T05:00:06.590Z,14.61
2023-04-01T05:05:54.585Z,14.6
2023-04-01T05:11:38.630Z,14.61
2023-04-01T05:17:22.464Z,14.61
2023-04-01T05:23:06.521Z,14.66
2023-04-01T05:28:50.723Z,14.59
2023-04-01T05:34:35.688Z,14.56
2023-04-01T05:40:19.782Z,14.53
2023-04-01T05:46:03.939Z,14.57
2023-04-01T05:51:48.070Z,14.63
2023-04-01T05:57:32.375Z,14.62
2023-04-01T06:03:16.934Z,14.76
2023-04-01T06:09:06.205Z,14.79
2023-04-01T06:14:55.187Z,14.85
2023-04-01T06:20:44.372Z,14.88
2023-04-01T06:26:31.958Z,14.86
2023-04-01T06:32:25.995Z,14.88
2023-04-01T06:38:18.931Z,14.87
2023-04-01T06:44:08.487Z,14.98
2023-04-01T06:49:57.662Z,15.07
2023-04-01T06:55:43.887Z,15.1
2023-04-01T07:01:30.669Z,15.11
2023-04-01T07:07:16.968Z,15.2
2023-04-01T07:13:03.967Z,15.29
2023-04-01T07:18:49.471Z,15.3
2023-04-01T07:24:35.345Z,15.27
2023-04-01T07:30:20.970Z,15.28
2023-04-01T07:36:10.075Z,15.26
2023-04-01T07:42:00.774Z,15.28
2023-04-01T07:47:56.939Z,15.29
2023-04-01T07:53:46.221Z,15.3
2023-04-01T07:59:34.366Z,15.47
2023-04-01T08:05:24.837Z,15.7
2023-04-01T08:11:13.844Z,15.76
2023-04-01T08:17:02.905Z,15.87
2023-04-01T08:22:50.280Z,16
2023-04-01T08:28:38.256Z,16.4
2023-04-01T08:34:24.911Z,16.63
2023-04-01T08:40:16.125Z,16.35
2023-04-01T08:46:06.762Z,16.24
2023-04-01T08:52:02.296Z,16.24
2023-04-01T08:57:53.045Z,16.11
2023-04-01T09:03:50.786Z,16.31
2023-04-01T09:09:46.774Z,16.72
2023-04-01T09:15:41.921Z,16.74
2023-04-01T09:21:37.247Z,16.92
2023-04-01T09:27:27.203Z,16.77
2023-04-01T09:33:22.693Z,17.07
2023-04-01T09:39:13.512Z,17.12
2023-04-01T09:44:58.906Z,17.26
2023-04-01T09:50:46.084Z,17.27
2023-04-01T09:56:48.584Z,17.33
2023-04-01T10:02:43.797Z,17.31
2023-04-01T10:08:42.931Z,17.58
2023-04-01T10:14:48.141Z,17.65
2023-04-01T10:20:55.555Z,17.83
2023-04-01T10:26:57.025Z,18.19
2023-04-01T10:32:55.121Z,18.3
2023-04-01T10:38:52.310Z,18.23
2023-04-01T10:44:47.828Z,18.32
2023-04-01T10:50:45.663Z,18.18
2023-04-01T10:56:47.453Z,17.96
2023-04-01T11:02:43.263Z,18.06
2023-04-01T11:08:38.808Z,18.08
2023-04-01T11:14:41.397Z,18.14
2023-04-01T11:20:50.743Z,18.04
2023-04-01T11:26:41.294Z,18.07
2023-04-01T11:32:32.381Z,18.58
2023-04-01T11:38:25.457Z,18.22
2023-04-01T11:44:20.857Z,18.14
2023-04-01T11:50:13.364Z,18.43
2023-04-01T11:56:03.711Z,18.6
2023-04-01T12:01:59.170Z,18.63
2023-04-01T12:07:57.180Z,18.78
2023-04-01T12:13:44.530Z,18.79
2023-04-01T12:19:35.753Z,18.55
2023-04-01T12:25:24.007Z,18.53
2023-04-01T12:31:15.282Z,19.22
2023-04-01T12:37:04.542Z,19.61
2023-04-01T12:42:59.856Z,19.28
2023-04-01T12:48:55.211Z,18.98
2023-04-01T12:54:53.480Z,18.96
2023-04-01T13:00:49.529Z,18.78
2023-04-01T13:06:44.962Z,18.78
2023-04-01T13:12:37.268Z,18.92
2023-04-01T13:18:29.081Z,18.86
2023-04-01T13:24:19.689Z,19.31
2023-04-01T13:30:18.636Z,19.58
2023-04-01T13:36:08.605Z,19.47
2023-04-01T13:42:00.431Z,19.5
2023-04-01T13:47:56.518Z,19.15
2023-04-01T13:53:54.298Z,19.43
2023-04-01T13:59:48.298Z,19.53
2023-04-01T14:05:43.037Z,19.14
2023-04-01T14:11:31.849Z,19.1
2023-04-01T14:17:22.447Z,18.96
2023-04-01T14:23:16.486Z,18.72
2023-04-01T14:29:03.753Z,18.51
2023-04-01T14:35:05.237Z,18.45
2023-04-01T14:40:54.901Z,18.67
2023-04-01T14:46:53.246Z,18.54
2023-04-01T14:52:39.627Z,18.71
2023-04-01T14:58:25.327Z,18.51
2023-04-01T15:04:17.058Z,18.36
2023-04-01T15:10:08.221Z,18.34
2023-04-01T15:16:02.860Z,18.22
2023-04-01T15:21:57.917Z,18.15
2023-04-01T15:27:47.798Z,18.01
2023-04-01T15:33:49.020Z,17.94
2023-04-01T15:39:40.119Z,17.83
2023-04-01T15:45:32.275Z,17.75
2023-04-01T15:51:22.522Z,17.63
2023-04-01T15:57:16.245Z,17.62
2023-04-01T16:03:11.821Z,17.65
2023-04-01T16:09:05.196Z,17.61
2023-04-01T16:14:55.121Z,17.49
2023-04-01T16:20:50.750Z,17.55
2023-04-01T16:26:37.971Z,17.62
2023-04-01T16:32:31.845Z,17.68
2023-04-01T16:38:21.353Z,17.56
2023-04-01T16:44:18.831Z,17.42
2023-04-01T16:50:07.069Z,17.27
2023-04-01T16:55:54.074Z,17.07
2023-04-01T17:01:44.294Z,16.89
2023-04-01T17:07:32.943Z,16.75
2023-04-01T17:13:25.496Z,16.59
2023-04-01T17:19:15.348Z,16.46
2023-04-01T17:25:06.464Z,16.34
2023-04-01T17:30:53.075Z,16.24
2023-04-01T17:36:45.309Z,16.17
2023-04-01T17:42:34.337Z,16.09
2023-04-01T17:48:25.521Z,16.01
2023-04-01T17:54:15.706Z,15.92
2023-04-01T18:00:02.376Z,15.83
2023-04-01T18:05:52.566Z,15.76
2023-04-01T18:11:43.718Z,15.68
2023-04-01T18:17:34.080Z,15.61
2023-04-01T18:23:22.602Z,15.55
2023-04-01T18:29:11.836Z,15.63
2023-04-01T18:35:01.172Z,15.55
2023-04-01T18:40:49.339Z,15.5
2023-04-01T18:46:39.242Z,15.49
2023-04-01T18:52:26.937Z,15.47
2023-04-01T18:58:14.075Z,15.41
2023-04-01T19:04:01.308Z,15.37
2023-04-01T19:09:49.092Z,15.31
2023-04-01T19:15:40.326Z,15.26
2023-04-01T19:21:27.563Z,15.33
2023-04-01T19:27:15.966Z,15.26
2023-04-01T19:33:05.025Z,15.24
2023-04-01T19:38:59.079Z,15.15
2023-04-01T19:44:49.443Z,15.08
2023-04-01T19:50:39.498Z,15
2023-04-01T19:56:24.389Z,14.93
2023-04-01T20:02:14.608Z,14.9
2023-04-01T20:08:00.706Z,14.86
2023-04-01T20:13:48.930Z,14.83
2023-04-01T20:19:36.161Z,14.79
2023-04-01T20:25:22.793Z,14.76
2023-04-01T20:31:13.961Z,14.72
2023-04-01T20:37:10.153Z,14.68
2023-04-01T20:43:02.769Z,14.66
2023-04-01T20:49:03.424Z,14.67
2023-04-01T20:54:58.648Z,14.7
2023-04-01T21:00:49.988Z,14.65
2023-04-01T21:06:44.221Z,14.64
2023-04-01T21:12:34.718Z,14.63
2023-04-01T21:18:25.662Z,14.62
2023-04-01T21:24:19.601Z,14.62
2023-04-01T21:30:09.944Z,14.6
2023-04-01T21:35:57.813Z,14.59
2023-04-01T21:41:52.830Z,14.54
2023-04-01T21:47:48.178Z,14.54
2023-04-01T21:53:50.777Z,14.52
2023-04-01T21:59:48.729Z,14.53
2023-04-01T22:05:36.062Z,14.5
2023-04-01T22:11:25.563Z,14.45
2023-04-01T22:17:14.676Z,14.43
2023-04-01T22:23:02.823Z,14.42
2023-04-01T22:28:50.316Z,14.39
2023-04-01T22:34:39.685Z,14.36
2023-04-01T22:40:28.715Z,14.33
2023-04-01T22:46:24.649Z,14.34
2023-04-01T22:52:13.559Z,14.38
2023-04-01T22:58:00.412Z,14.35
2023-04-01T23:03:46.783Z,14.39
2023-04-01T23:09:32.603Z,14.36
2023-04-01T23:15:17.140Z,14.34
2023-04-01T23:21:08.111Z,14.38
2023-04-01T23:26:55.758Z,14.39
2023-04-01T23:32:40.635Z,14.35
2023-04-01T23:38:27.142Z,14.33
2023-04-01T23:44:14.283Z,14.36
2023-04-01T23:50:00.071Z,14.36
2023-04-01T23:55:47.737Z,14.38
